sensor_id;sensor_type;location;lat;lon;timestamp;P1;durP1;ratioP1;P2;durP2;ratioP2
19951;SDS011;10137;49.406;19.484;2023-07-20T00:00:32;9.03;;;4.47;;
19951;SDS011;10137;49.406;19.484;2023-07-20T00:03:10;5.33;;;4.10;;
19951;SDS011;10137;49.406;19.484;2023-07-20T00:05:44;4.53;;;3.90;;
19951;SDS011;10137;49.406;19.484;2023-07-20T00:08:12;9.13;;;4.77;;
19951;SDS011;10137;49.406;19.484;2023-07-20T00:10:40;7.00;;;4.07;;
19951;SDS011;10137;49.406;19.484;2023-07-20T00:13:08;10.67;;;4.30;;
19951;SDS011;10137;49.406;19.484;2023-07-20T00:15:37;8.47;;;4.33;;
19951;SDS011;10137;49.406;19.484;2023-07-20T00:18:05;6.43;;;4.33;;
19951;SDS011;10137;49.406;19.484;2023-07-20T00:20:33;9.27;;;4.20;;
19951;SDS011;10137;49.406;19.484;2023-07-20T00:23:06;8.93;;;4.47;;
19951;SDS011;10137;49.406;19.484;2023-07-20T00:25:35;7.33;;;4.17;;
19951;SDS011;10137;49.406;19.484;2023-07-20T00:28:03;5.33;;;3.97;;
19951;SDS011;10137;49.406;19.484;2023-07-20T00:30:32;9.80;;;4.27;;
19951;SDS011;10137;49.406;19.484;2023-07-20T00:33:00;5.40;;;4.03;;
19951;SDS011;10137;49.406;19.484;2023-07-20T00:35:29;6.17;;;4.17;;
19951;SDS011;10137;49.406;19.484;2023-07-20T00:38:00;7.37;;;4.60;;
19951;SDS011;10137;49.406;19.484;2023-07-20T00:40:35;6.83;;;4.23;;
19951;SDS011;10137;49.406;19.484;2023-07-20T00:43:04;5.70;;;3.87;;
19951;SDS011;10137;49.406;19.484;2023-07-20T00:45:32;4.93;;;4.13;;
19951;SDS011;10137;49.406;19.484;2023-07-20T00:48:01;6.63;;;4.20;;
19951;SDS011;10137;49.406;19.484;2023-07-20T00:50:31;10.07;;;4.30;;
19951;SDS011;10137;49.406;19.484;2023-07-20T00:52:59;9.23;;;4.30;;
19951;SDS011;10137;49.406;19.484;2023-07-20T00:55:36;9.50;;;4.53;;
19951;SDS011;10137;49.406;19.484;2023-07-20T00:58:04;7.63;;;4.57;;
19951;SDS011;10137;49.406;19.484;2023-07-20T01:00:33;10.57;;;4.50;;
19951;SDS011;10137;49.406;19.484;2023-07-20T01:03:01;11.27;;;4.17;;
19951;SDS011;10137;49.406;19.484;2023-07-20T01:05:32;10.93;;;4.67;;
19951;SDS011;10137;49.406;19.484;2023-07-20T01:08:11;5.73;;;3.87;;
19951;SDS011;10137;49.406;19.484;2023-07-20T01:10:46;7.13;;;4.10;;
19951;SDS011;10137;49.406;19.484;2023-07-20T01:13:21;7.17;;;4.10;;
19951;SDS011;10137;49.406;19.484;2023-07-20T01:15:50;6.83;;;3.90;;
19951;SDS011;10137;49.406;19.484;2023-07-20T01:18:24;7.40;;;4.87;;
19951;SDS011;10137;49.406;19.484;2023-07-20T01:20:52;8.43;;;4.50;;
19951;SDS011;10137;49.406;19.484;2023-07-20T01:23:41;9.07;;;4.80;;
19951;SDS011;10137;49.406;19.484;2023-07-20T01:29:33;10.83;;;5.17;;
19951;SDS011;10137;49.406;19.484;2023-07-20T01:32:20;9.07;;;4.73;;
19951;SDS011;10137;49.406;19.484;2023-07-20T01:34:52;11.20;;;5.10;;
19951;SDS011;10137;49.406;19.484;2023-07-20T01:37:23;7.80;;;4.40;;
19951;SDS011;10137;49.406;19.484;2023-07-20T01:39:54;6.40;;;4.90;;
19951;SDS011;10137;49.406;19.484;2023-07-20T01:42:25;9.20;;;5.00;;
19951;SDS011;10137;49.406;19.484;2023-07-20T01:44:54;11.80;;;5.10;;
19951;SDS011;10137;49.406;19.484;2023-07-20T01:47:23;7.87;;;4.17;;
19951;SDS011;10137;49.406;19.484;2023-07-20T01:49:51;9.33;;;4.37;;
19951;SDS011;10137;49.406;19.484;2023-07-20T01:52:20;7.87;;;4.10;;
19951;SDS011;10137;49.406;19.484;2023-07-20T01:54:48;10.37;;;4.70;;
19951;SDS011;10137;49.406;19.484;2023-07-20T01:57:16;6.33;;;3.97;;
19951;SDS011;10137;49.406;19.484;2023-07-20T01:59:44;12.20;;;4.63;;
19951;SDS011;10137;49.406;19.484;2023-07-20T02:02:14;6.77;;;4.43;;
19951;SDS011;10137;49.406;19.484;2023-07-20T02:04:43;11.10;;;4.57;;
19951;SDS011;10137;49.406;19.484;2023-07-20T02:07:11;5.73;;;4.17;;
19951;SDS011;10137;49.406;19.484;2023-07-20T02:09:39;5.17;;;4.27;;
19951;SDS011;10137;49.406;19.484;2023-07-20T02:12:07;7.67;;;4.20;;
19951;SDS011;10137;49.406;19.484;2023-07-20T02:14:35;7.97;;;4.13;;
19951;SDS011;10137;49.406;19.484;2023-07-20T02:17:04;8.70;;;5.03;;
19951;SDS011;10137;49.406;19.484;2023-07-20T02:19:32;8.23;;;4.13;;
19951;SDS011;10137;49.406;19.484;2023-07-20T02:22:02;10.50;;;4.40;;
19951;SDS011;10137;49.406;19.484;2023-07-20T02:24:31;8.37;;;4.57;;
19951;SDS011;10137;49.406;19.484;2023-07-20T02:26:58;5.70;;;3.97;;
19951;SDS011;10137;49.406;19.484;2023-07-20T02:29:27;6.60;;;4.37;;
19951;SDS011;10137;49.406;19.484;2023-07-20T02:31:55;9.40;;;4.13;;
19951;SDS011;10137;49.406;19.484;2023-07-20T02:34:23;5.57;;;4.20;;
19951;SDS011;10137;49.406;19.484;2023-07-20T02:36:51;5.67;;;4.20;;
19951;SDS011;10137;49.406;19.484;2023-07-20T02:39:20;8.30;;;4.00;;
19951;SDS011;10137;49.406;19.484;2023-07-20T02:41:49;9.47;;;4.33;;
19951;SDS011;10137;49.406;19.484;2023-07-20T02:44:17;8.17;;;4.43;;
19951;SDS011;10137;49.406;19.484;2023-07-20T02:46:45;8.53;;;3.70;;
19951;SDS011;10137;49.406;19.484;2023-07-20T02:49:16;9.30;;;4.70;;
19951;SDS011;10137;49.406;19.484;2023-07-20T02:51:44;10.37;;;4.67;;
19951;SDS011;10137;49.406;19.484;2023-07-20T02:54:13;9.93;;;5.17;;
19951;SDS011;10137;49.406;19.484;2023-07-20T02:56:42;9.73;;;4.63;;
19951;SDS011;10137;49.406;19.484;2023-07-20T02:59:11;15.93;;;4.97;;
19951;SDS011;10137;49.406;19.484;2023-07-20T03:01:39;13.30;;;5.13;;
19951;SDS011;10137;49.406;19.484;2023-07-20T03:04:08;9.67;;;4.67;;
19951;SDS011;10137;49.406;19.484;2023-07-20T03:06:36;8.60;;;4.73;;
19951;SDS011;10137;49.406;19.484;2023-07-20T03:09:03;9.03;;;4.73;;
19951;SDS011;10137;49.406;19.484;2023-07-20T03:11:32;11.30;;;5.20;;
19951;SDS011;10137;49.406;19.484;2023-07-20T03:14:01;10.07;;;5.23;;
19951;SDS011;10137;49.406;19.484;2023-07-20T03:16:29;9.33;;;4.53;;
19951;SDS011;10137;49.406;19.484;2023-07-20T03:18:58;8.30;;;4.93;;
19951;SDS011;10137;49.406;19.484;2023-07-20T03:21:26;13.17;;;5.00;;
19951;SDS011;10137;49.406;19.484;2023-07-20T03:23:55;11.40;;;5.00;;
19951;SDS011;10137;49.406;19.484;2023-07-20T03:26:23;16.00;;;5.27;;
19951;SDS011;10137;49.406;19.484;2023-07-20T03:28:51;13.37;;;4.83;;
19951;SDS011;10137;49.406;19.484;2023-07-20T03:31:21;11.83;;;4.40;;
19951;SDS011;10137;49.406;19.484;2023-07-20T03:33:49;8.93;;;4.73;;
19951;SDS011;10137;49.406;19.484;2023-07-20T03:36:16;10.07;;;4.53;;
19951;SDS011;10137;49.406;19.484;2023-07-20T03:38:43;7.20;;;4.37;;
19951;SDS011;10137;49.406;19.484;2023-07-20T03:41:10;10.70;;;5.10;;
19951;SDS011;10137;49.406;19.484;2023-07-20T03:43:37;9.57;;;4.30;;
19951;SDS011;10137;49.406;19.484;2023-07-20T03:46:04;12.57;;;4.80;;
19951;SDS011;10137;49.406;19.484;2023-07-20T03:48:33;7.57;;;4.83;;
19951;SDS011;10137;49.406;19.484;2023-07-20T03:51:01;10.60;;;4.50;;
19951;SDS011;10137;49.406;19.484;2023-07-20T03:53:30;11.77;;;5.33;;
19951;SDS011;10137;49.406;19.484;2023-07-20T03:56:00;9.00;;;4.60;;
19951;SDS011;10137;49.406;19.484;2023-07-20T03:58:29;6.13;;;4.40;;
19951;SDS011;10137;49.406;19.484;2023-07-20T04:01:01;9.10;;;4.17;;
19951;SDS011;10137;49.406;19.484;2023-07-20T04:03:30;8.17;;;4.33;;
19951;SDS011;10137;49.406;19.484;2023-07-20T04:06:01;8.10;;;4.10;;
19951;SDS011;10137;49.406;19.484;2023-07-20T04:08:31;5.60;;;4.00;;
19951;SDS011;10137;49.406;19.484;2023-07-20T04:11:02;7.23;;;4.10;;
19951;SDS011;10137;49.406;19.484;2023-07-20T04:13:30;6.63;;;3.50;;
19951;SDS011;10137;49.406;19.484;2023-07-20T04:15:59;8.77;;;4.37;;
19951;SDS011;10137;49.406;19.484;2023-07-20T04:18:29;11.03;;;4.60;;
19951;SDS011;10137;49.406;19.484;2023-07-20T04:20:58;11.33;;;4.17;;
19951;SDS011;10137;49.406;19.484;2023-07-20T04:23:28;6.57;;;4.40;;
19951;SDS011;10137;49.406;19.484;2023-07-20T04:25:56;7.47;;;4.60;;
19951;SDS011;10137;49.406;19.484;2023-07-20T04:28:24;9.37;;;3.97;;
19951;SDS011;10137;49.406;19.484;2023-07-20T04:30:52;6.67;;;4.40;;
19951;SDS011;10137;49.406;19.484;2023-07-20T04:33:20;8.97;;;4.10;;
19951;SDS011;10137;49.406;19.484;2023-07-20T04:35:49;7.73;;;4.33;;
19951;SDS011;10137;49.406;19.484;2023-07-20T04:38:18;6.10;;;3.80;;
19951;SDS011;10137;49.406;19.484;2023-07-20T04:40:51;7.77;;;3.90;;
19951;SDS011;10137;49.406;19.484;2023-07-20T04:43:19;8.17;;;3.80;;
19951;SDS011;10137;49.406;19.484;2023-07-20T04:45:48;8.80;;;4.37;;
19951;SDS011;10137;49.406;19.484;2023-07-20T04:48:17;9.37;;;4.60;;
19951;SDS011;10137;49.406;19.484;2023-07-20T04:50:45;5.67;;;4.07;;
19951;SDS011;10137;49.406;19.484;2023-07-20T04:53:13;5.67;;;3.90;;
19951;SDS011;10137;49.406;19.484;2023-07-20T04:55:46;7.33;;;4.17;;
19951;SDS011;10137;49.406;19.484;2023-07-20T04:58:26;5.67;;;3.80;;
19951;SDS011;10137;49.406;19.484;2023-07-20T05:00:57;7.97;;;3.90;;
19951;SDS011;10137;49.406;19.484;2023-07-20T05:03:27;8.47;;;3.20;;
19951;SDS011;10137;49.406;19.484;2023-07-20T05:05:56;9.57;;;3.60;;
19951;SDS011;10137;49.406;19.484;2023-07-20T05:08:24;10.23;;;3.90;;
19951;SDS011;10137;49.406;19.484;2023-07-20T05:10:52;6.23;;;3.70;;
19951;SDS011;10137;49.406;19.484;2023-07-20T05:13:32;4.27;;;2.87;;
19951;SDS011;10137;49.406;19.484;2023-07-20T05:16:01;4.83;;;2.70;;
19951;SDS011;10137;49.406;19.484;2023-07-20T05:18:31;13.30;;;3.60;;
19951;SDS011;10137;49.406;19.484;2023-07-20T05:20:59;7.87;;;3.20;;
19951;SDS011;10137;49.406;19.484;2023-07-20T05:23:28;5.30;;;3.50;;
19951;SDS011;10137;49.406;19.484;2023-07-20T05:25:55;5.40;;;3.63;;
19951;SDS011;10137;49.406;19.484;2023-07-20T05:28:28;5.93;;;3.70;;
19951;SDS011;10137;49.406;19.484;2023-07-20T05:30:56;8.70;;;3.27;;
19951;SDS011;10137;49.406;19.484;2023-07-20T05:33:26;4.77;;;2.83;;
19951;SDS011;10137;49.406;19.484;2023-07-20T05:35:54;4.23;;;2.87;;
19951;SDS011;10137;49.406;19.484;2023-07-20T05:38:22;4.03;;;2.27;;
19951;SDS011;10137;49.406;19.484;2023-07-20T05:40:51;3.93;;;2.10;;
19951;SDS011;10137;49.406;19.484;2023-07-20T05:43:18;7.25;;;2.80;;
19951;SDS011;10137;49.406;19.484;2023-07-20T05:45:47;5.32;;;2.50;;
19951;SDS011;10137;49.406;19.484;2023-07-20T05:48:16;3.50;;;2.10;;
19951;SDS011;10137;49.406;19.484;2023-07-20T05:50:43;6.70;;;2.35;;
19951;SDS011;10137;49.406;19.484;2023-07-20T05:53:14;4.57;;;2.05;;
19951;SDS011;10137;49.406;19.484;2023-07-20T05:55:41;2.85;;;1.83;;
19951;SDS011;10137;49.406;19.484;2023-07-20T05:58:12;2.83;;;1.88;;
19951;SDS011;10137;49.406;19.484;2023-07-20T06:00:40;7.00;;;1.83;;
19951;SDS011;10137;49.406;19.484;2023-07-20T06:03:09;6.45;;;1.92;;
19951;SDS011;10137;49.406;19.484;2023-07-20T06:05:37;3.28;;;1.80;;
19951;SDS011;10137;49.406;19.484;2023-07-20T06:08:06;4.97;;;2.38;;
19951;SDS011;10137;49.406;19.484;2023-07-20T06:10:33;4.53;;;2.50;;
19951;SDS011;10137;49.406;19.484;2023-07-20T06:13:04;4.28;;;2.22;;
19951;SDS011;10137;49.406;19.484;2023-07-20T06:15:33;5.00;;;2.28;;
19951;SDS011;10137;49.406;19.484;2023-07-20T06:18:01;3.13;;;2.40;;
19951;SDS011;10137;49.406;19.484;2023-07-20T06:20:31;3.90;;;2.30;;
19951;SDS011;10137;49.406;19.484;2023-07-20T06:22:59;5.28;;;2.67;;
19951;SDS011;10137;49.406;19.484;2023-07-20T06:25:27;2.88;;;1.90;;
19951;SDS011;10137;49.406;19.484;2023-07-20T06:27:58;4.53;;;2.20;;
19951;SDS011;10137;49.406;19.484;2023-07-20T06:30:26;4.65;;;2.28;;
19951;SDS011;10137;49.406;19.484;2023-07-20T06:32:58;4.60;;;2.40;;
19951;SDS011;10137;49.406;19.484;2023-07-20T06:35:26;6.07;;;2.83;;
19951;SDS011;10137;49.406;19.484;2023-07-20T06:38:03;4.68;;;1.95;;
19951;SDS011;10137;49.406;19.484;2023-07-20T06:40:30;13.77;;;2.83;;
19951;SDS011;10137;49.406;19.484;2023-07-20T06:42:59;6.28;;;2.25;;
19951;SDS011;10137;49.406;19.484;2023-07-20T06:45:27;6.50;;;2.30;;
19951;SDS011;10137;49.406;19.484;2023-07-20T06:47:55;2.80;;;2.20;;
19951;SDS011;10137;49.406;19.484;2023-07-20T06:50:23;4.60;;;2.83;;
19951;SDS011;10137;49.406;19.484;2023-07-20T06:52:51;5.78;;;2.42;;
19951;SDS011;10137;49.406;19.484;2023-07-20T06:55:21;5.88;;;2.45;;
19951;SDS011;10137;49.406;19.484;2023-07-20T06:57:51;3.70;;;2.28;;
19951;SDS011;10137;49.406;19.484;2023-07-20T07:00:19;5.18;;;2.53;;
19951;SDS011;10137;49.406;19.484;2023-07-20T07:02:47;3.88;;;2.50;;
19951;SDS011;10137;49.406;19.484;2023-07-20T07:05:14;3.38;;;2.58;;
19951;SDS011;10137;49.406;19.484;2023-07-20T07:07:42;4.38;;;2.17;;
19951;SDS011;10137;49.406;19.484;2023-07-20T07:10:09;5.55;;;2.47;;
19951;SDS011;10137;49.406;19.484;2023-07-20T07:12:37;3.78;;;2.30;;
19951;SDS011;10137;49.406;19.484;2023-07-20T07:15:04;3.67;;;2.10;;
19951;SDS011;10137;49.406;19.484;2023-07-20T07:17:32;3.20;;;2.35;;
19951;SDS011;10137;49.406;19.484;2023-07-20T07:20:00;3.28;;;2.03;;
19951;SDS011;10137;49.406;19.484;2023-07-20T07:22:27;3.15;;;2.03;;
19951;SDS011;10137;49.406;19.484;2023-07-20T07:24:54;3.72;;;1.90;;
19951;SDS011;10137;49.406;19.484;2023-07-20T07:27:21;3.03;;;2.08;;
19951;SDS011;10137;49.406;19.484;2023-07-20T07:29:50;3.78;;;1.95;;
19951;SDS011;10137;49.406;19.484;2023-07-20T07:32:17;4.80;;;2.13;;
19951;SDS011;10137;49.406;19.484;2023-07-20T07:34:44;4.03;;;2.03;;
19951;SDS011;10137;49.406;19.484;2023-07-20T07:37:13;2.63;;;1.80;;
19951;SDS011;10137;49.406;19.484;2023-07-20T07:39:40;5.20;;;1.77;;
19951;SDS011;10137;49.406;19.484;2023-07-20T07:42:07;2.90;;;1.83;;
19951;SDS011;10137;49.406;19.484;2023-07-20T07:44:34;8.73;;;2.47;;
19951;SDS011;10137;49.406;19.484;2023-07-20T07:47:03;3.58;;;2.22;;
19951;SDS011;10137;49.406;19.484;2023-07-20T07:49:30;4.60;;;2.10;;
19951;SDS011;10137;49.406;19.484;2023-07-20T07:51:57;5.35;;;2.05;;
19951;SDS011;10137;49.406;19.484;2023-07-20T07:54:27;2.50;;;1.70;;
19951;SDS011;10137;49.406;19.484;2023-07-20T07:56:55;4.78;;;1.90;;
19951;SDS011;10137;49.406;19.484;2023-07-20T07:59:22;2.88;;;1.95;;
19951;SDS011;10137;49.406;19.484;2023-07-20T08:01:49;6.25;;;2.15;;
19951;SDS011;10137;49.406;19.484;2023-07-20T08:04:18;4.82;;;2.05;;
19951;SDS011;10137;49.406;19.484;2023-07-20T08:06:45;3.40;;;1.95;;
19951;SDS011;10137;49.406;19.484;2023-07-20T08:09:12;5.25;;;1.95;;
19951;SDS011;10137;49.406;19.484;2023-07-20T08:11:40;3.10;;;1.48;;
19951;SDS011;10137;49.406;19.484;2023-07-20T08:14:08;3.00;;;1.33;;
19951;SDS011;10137;49.406;19.484;2023-07-20T08:16:37;4.18;;;1.90;;
19951;SDS011;10137;49.406;19.484;2023-07-20T08:19:05;3.10;;;1.92;;
19951;SDS011;10137;49.406;19.484;2023-07-20T08:21:33;2.60;;;1.73;;
19951;SDS011;10137;49.406;19.484;2023-07-20T08:24:01;1.98;;;1.55;;
19951;SDS011;10137;49.406;19.484;2023-07-20T08:26:30;2.97;;;1.63;;
19951;SDS011;10137;49.406;19.484;2023-07-20T08:28:58;4.55;;;1.50;;
19951;SDS011;10137;49.406;19.484;2023-07-20T08:31:26;5.53;;;1.83;;
19951;SDS011;10137;49.406;19.484;2023-07-20T08:33:54;2.85;;;1.77;;
19951;SDS011;10137;49.406;19.484;2023-07-20T08:36:22;3.03;;;1.52;;
19951;SDS011;10137;49.406;19.484;2023-07-20T08:38:58;4.50;;;1.90;;
19951;SDS011;10137;49.406;19.484;2023-07-20T08:41:30;2.97;;;1.73;;
19951;SDS011;10137;49.406;19.484;2023-07-20T08:43:58;2.45;;;1.58;;
19951;SDS011;10137;49.406;19.484;2023-07-20T08:46:27;4.32;;;2.00;;
19951;SDS011;10137;49.406;19.484;2023-07-20T08:48:58;4.93;;;1.65;;
19951;SDS011;10137;49.406;19.484;2023-07-20T08:51:27;2.72;;;1.52;;
19951;SDS011;10137;49.406;19.484;2023-07-20T08:54:03;4.25;;;1.70;;
19951;SDS011;10137;49.406;19.484;2023-07-20T08:56:31;3.50;;;1.40;;
19951;SDS011;10137;49.406;19.484;2023-07-20T08:59:01;2.00;;;1.58;;
19951;SDS011;10137;49.406;19.484;2023-07-20T09:01:32;2.75;;;1.65;;
19951;SDS011;10137;49.406;19.484;2023-07-20T09:04:02;1.90;;;1.50;;
19951;SDS011;10137;49.406;19.484;2023-07-20T09:06:31;3.00;;;1.60;;
19951;SDS011;10137;49.406;19.484;2023-07-20T09:09:02;7.43;;;2.00;;
19951;SDS011;10137;49.406;19.484;2023-07-20T09:11:31;2.92;;;1.55;;
19951;SDS011;10137;49.406;19.484;2023-07-20T09:14:03;2.33;;;1.30;;
19951;SDS011;10137;49.406;19.484;2023-07-20T09:16:32;3.80;;;2.05;;
19951;SDS011;10137;49.406;19.484;2023-07-20T09:19:14;3.80;;;1.60;;
19951;SDS011;10137;49.406;19.484;2023-07-20T09:21:46;5.00;;;1.60;;
19951;SDS011;10137;49.406;19.484;2023-07-20T09:24:18;4.65;;;1.50;;
19951;SDS011;10137;49.406;19.484;2023-07-20T09:26:46;4.25;;;1.65;;
19951;SDS011;10137;49.406;19.484;2023-07-20T09:29:17;3.35;;;1.45;;
19951;SDS011;10137;49.406;19.484;2023-07-20T09:31:58;3.95;;;1.83;;
19951;SDS011;10137;49.406;19.484;2023-07-20T09:34:27;3.05;;;1.83;;
19951;SDS011;10137;49.406;19.484;2023-07-20T09:36:56;3.22;;;1.63;;
19951;SDS011;10137;49.406;19.484;2023-07-20T09:39:28;2.65;;;1.40;;
19951;SDS011;10137;49.406;19.484;2023-07-20T09:41:59;1.77;;;1.25;;
19951;SDS011;10137;49.406;19.484;2023-07-20T09:44:31;2.63;;;1.40;;
19951;SDS011;10137;49.406;19.484;2023-07-20T09:46:59;6.28;;;1.70;;
19951;SDS011;10137;49.406;19.484;2023-07-20T09:49:32;3.33;;;1.75;;
19951;SDS011;10137;49.406;19.484;2023-07-20T09:52:00;2.08;;;1.20;;
19951;SDS011;10137;49.406;19.484;2023-07-20T09:54:32;3.42;;;1.65;;
19951;SDS011;10137;49.406;19.484;2023-07-20T09:57:03;5.95;;;1.48;;
19951;SDS011;10137;49.406;19.484;2023-07-20T09:59:34;2.17;;;1.40;;
19951;SDS011;10137;49.406;19.484;2023-07-20T10:02:04;3.97;;;1.25;;
19951;SDS011;10137;49.406;19.484;2023-07-20T10:04:40;2.05;;;1.05;;
19951;SDS011;10137;49.406;19.484;2023-07-20T10:07:10;1.50;;;1.20;;
19951;SDS011;10137;49.406;19.484;2023-07-20T10:09:54;2.58;;;1.00;;
19951;SDS011;10137;49.406;19.484;2023-07-20T10:12:29;1.25;;;1.05;;
19951;SDS011;10137;49.406;19.484;2023-07-20T10:14:59;2.03;;;1.30;;
19951;SDS011;10137;49.406;19.484;2023-07-20T10:17:40;1.50;;;1.20;;
19951;SDS011;10137;49.406;19.484;2023-07-20T10:20:16;1.50;;;1.30;;
19951;SDS011;10137;49.406;19.484;2023-07-20T10:22:51;3.45;;;1.70;;
19951;SDS011;10137;49.406;19.484;2023-07-20T10:25:31;2.33;;;1.50;;
19951;SDS011;10137;49.406;19.484;2023-07-20T10:28:04;2.22;;;1.42;;
19951;SDS011;10137;49.406;19.484;2023-07-20T10:30:34;3.15;;;1.65;;
19951;SDS011;10137;49.406;19.484;2023-07-20T10:33:02;3.05;;;1.23;;
19951;SDS011;10137;49.406;19.484;2023-07-20T10:35:31;1.85;;;1.40;;
19951;SDS011;10137;49.406;19.484;2023-07-20T10:41:17;2.95;;;1.50;;
19951;SDS011;10137;49.406;19.484;2023-07-20T10:43:55;1.20;;;1.10;;
19951;SDS011;10137;49.406;19.484;2023-07-20T10:46:41;2.58;;;1.00;;
19951;SDS011;10137;49.406;19.484;2023-07-20T10:49:12;1.63;;;1.00;;
19951;SDS011;10137;49.406;19.484;2023-07-20T10:51:42;2.17;;;1.35;;
19951;SDS011;10137;49.406;19.484;2023-07-20T10:57:28;3.67;;;1.38;;
19951;SDS011;10137;49.406;19.484;2023-07-20T11:00:07;2.13;;;1.35;;
19951;SDS011;10137;49.406;19.484;2023-07-20T11:02:44;3.88;;;1.50;;
19951;SDS011;10137;49.406;19.484;2023-07-20T11:05:32;2.88;;;1.77;;
19951;SDS011;10137;49.406;19.484;2023-07-20T11:08:09;2.42;;;1.40;;
19951;SDS011;10137;49.406;19.484;2023-07-20T11:10:38;1.65;;;1.23;;
19951;SDS011;10137;49.406;19.484;2023-07-20T11:13:21;5.13;;;1.17;;
19951;SDS011;10137;49.406;19.484;2023-07-20T11:16:03;1.98;;;1.10;;
19951;SDS011;10137;49.406;19.484;2023-07-20T11:18:33;1.30;;;1.00;;
19951;SDS011;10137;49.406;19.484;2023-07-20T11:21:06;1.23;;;1.10;;
19951;SDS011;10137;49.406;19.484;2023-07-20T11:23:38;3.28;;;1.40;;
19951;SDS011;10137;49.406;19.484;2023-07-20T11:26:07;2.83;;;1.40;;
19951;SDS011;10137;49.406;19.484;2023-07-20T11:28:37;1.88;;;1.23;;
19951;SDS011;10137;49.406;19.484;2023-07-20T11:31:05;2.35;;;1.10;;
19951;SDS011;10137;49.406;19.484;2023-07-20T11:33:33;2.10;;;1.10;;
19951;SDS011;10137;49.406;19.484;2023-07-20T11:36:02;3.03;;;1.38;;
19951;SDS011;10137;49.406;19.484;2023-07-20T11:38:31;2.58;;;1.23;;
19951;SDS011;10137;49.406;19.484;2023-07-20T11:40:59;2.55;;;1.27;;
19951;SDS011;10137;49.406;19.484;2023-07-20T11:43:30;2.92;;;1.30;;
19951;SDS011;10137;49.406;19.484;2023-07-20T11:46:04;1.92;;;1.30;;
19951;SDS011;10137;49.406;19.484;2023-07-20T11:48:33;2.28;;;1.33;;
19951;SDS011;10137;49.406;19.484;2023-07-20T11:51:01;3.10;;;1.38;;
19951;SDS011;10137;49.406;19.484;2023-07-20T11:53:30;3.28;;;1.10;;
19951;SDS011;10137;49.406;19.484;2023-07-20T11:55:58;1.85;;;1.00;;
19951;SDS011;10137;49.406;19.484;2023-07-20T11:58:27;3.63;;;1.00;;
19951;SDS011;10137;49.406;19.484;2023-07-20T12:00:56;1.65;;;1.13;;
19951;SDS011;10137;49.406;19.484;2023-07-20T12:03:26;2.10;;;1.13;;
19951;SDS011;10137;49.406;19.484;2023-07-20T12:05:55;4.07;;;1.35;;
19951;SDS011;10137;49.406;19.484;2023-07-20T12:08:26;2.00;;;0.95;;
19951;SDS011;10137;49.406;19.484;2023-07-20T12:10:54;2.83;;;1.38;;
19951;SDS011;10137;49.406;19.484;2023-07-20T12:13:22;3.88;;;1.23;;
19951;SDS011;10137;49.406;19.484;2023-07-20T12:15:52;2.08;;;1.20;;
19951;SDS011;10137;49.406;19.484;2023-07-20T12:18:22;1.67;;;1.27;;
19951;SDS011;10137;49.406;19.484;2023-07-20T12:21:02;2.60;;;1.50;;
19951;SDS011;10137;49.406;19.484;2023-07-20T12:23:34;2.83;;;1.20;;
19951;SDS011;10137;49.406;19.484;2023-07-20T12:26:05;3.28;;;1.58;;
19951;SDS011;10137;49.406;19.484;2023-07-20T12:28:35;1.63;;;1.00;;
19951;SDS011;10137;49.406;19.484;2023-07-20T12:31:07;5.03;;;1.10;;
19951;SDS011;10137;49.406;19.484;2023-07-20T12:33:36;4.72;;;1.45;;
19951;SDS011;10137;49.406;19.484;2023-07-20T12:36:05;2.80;;;1.40;;
19951;SDS011;10137;49.406;19.484;2023-07-20T12:38:34;1.70;;;1.30;;
19951;SDS011;10137;49.406;19.484;2023-07-20T12:41:02;4.25;;;1.60;;
19951;SDS011;10137;49.406;19.484;2023-07-20T12:43:31;4.95;;;1.95;;
19951;SDS011;10137;49.406;19.484;2023-07-20T12:46:06;2.75;;;1.30;;
19951;SDS011;10137;49.406;19.484;2023-07-20T12:48:35;5.85;;;1.98;;
19951;SDS011;10137;49.406;19.484;2023-07-20T12:51:07;4.20;;;1.90;;
19951;SDS011;10137;49.406;19.484;2023-07-20T12:53:36;3.22;;;1.88;;
19951;SDS011;10137;49.406;19.484;2023-07-20T12:56:04;2.88;;;1.55;;
19951;SDS011;10137;49.406;19.484;2023-07-20T12:58:33;1.30;;;1.20;;
19951;SDS011;10137;49.406;19.484;2023-07-20T13:01:03;3.10;;;1.45;;
19951;SDS011;10137;49.406;19.484;2023-07-20T13:03:34;1.88;;;1.45;;
19951;SDS011;10137;49.406;19.484;2023-07-20T13:06:02;1.95;;;1.52;;
19951;SDS011;10137;49.406;19.484;2023-07-20T13:08:32;4.50;;;1.65;;
19951;SDS011;10137;49.406;19.484;2023-07-20T13:11:00;2.22;;;1.30;;
19951;SDS011;10137;49.406;19.484;2023-07-20T13:13:28;3.00;;;1.85;;
19951;SDS011;10137;49.406;19.484;2023-07-20T13:15:56;2.30;;;1.70;;
19951;SDS011;10137;49.406;19.484;2023-07-20T13:18:24;2.33;;;1.42;;
19951;SDS011;10137;49.406;19.484;2023-07-20T13:20:53;3.60;;;1.65;;
19951;SDS011;10137;49.406;19.484;2023-07-20T13:23:21;2.70;;;1.70;;
19951;SDS011;10137;49.406;19.484;2023-07-20T13:25:51;3.75;;;1.60;;
19951;SDS011;10137;49.406;19.484;2023-07-20T13:28:19;2.47;;;1.40;;
19951;SDS011;10137;49.406;19.484;2023-07-20T13:30:47;1.40;;;1.30;;
19951;SDS011;10137;49.406;19.484;2023-07-20T13:33:16;7.45;;;1.90;;
19951;SDS011;10137;49.406;19.484;2023-07-20T13:35:43;4.25;;;1.85;;
19951;SDS011;10137;49.406;19.484;2023-07-20T13:38:13;2.45;;;1.20;;
19951;SDS011;10137;49.406;19.484;2023-07-20T13:40:40;5.35;;;1.50;;
19951;SDS011;10137;49.406;19.484;2023-07-20T13:43:09;4.07;;;1.50;;
19951;SDS011;10137;49.406;19.484;2023-07-20T13:45:37;2.90;;;1.40;;
19951;SDS011;10137;49.406;19.484;2023-07-20T13:48:04;8.77;;;1.63;;
19951;SDS011;10137;49.406;19.484;2023-07-20T13:50:31;5.03;;;1.60;;
19951;SDS011;10137;49.406;19.484;2023-07-20T13:52:58;4.03;;;1.63;;
19951;SDS011;10137;49.406;19.484;2023-07-20T13:55:28;4.53;;;1.42;;
19951;SDS011;10137;49.406;19.484;2023-07-20T13:57:56;2.17;;;1.48;;
19951;SDS011;10137;49.406;19.484;2023-07-20T14:00:25;2.78;;;1.60;;
19951;SDS011;10137;49.406;19.484;2023-07-20T14:02:55;2.90;;;1.58;;
19951;SDS011;10137;49.406;19.484;2023-07-20T14:05:22;6.60;;;1.75;;
19951;SDS011;10137;49.406;19.484;2023-07-20T14:07:50;2.67;;;1.55;;
19951;SDS011;10137;49.406;19.484;2023-07-20T14:10:18;4.63;;;1.50;;
19951;SDS011;10137;49.406;19.484;2023-07-20T14:12:45;3.88;;;1.50;;
19951;SDS011;10137;49.406;19.484;2023-07-20T14:15:12;3.58;;;1.45;;
19951;SDS011;10137;49.406;19.484;2023-07-20T14:17:41;3.28;;;1.63;;
19951;SDS011;10137;49.406;19.484;2023-07-20T14:20:08;2.75;;;1.42;;
19951;SDS011;10137;49.406;19.484;2023-07-20T14:22:36;4.85;;;1.35;;
19951;SDS011;10137;49.406;19.484;2023-07-20T14:25:03;2.78;;;1.45;;
19951;SDS011;10137;49.406;19.484;2023-07-20T14:27:31;2.28;;;1.40;;
19951;SDS011;10137;49.406;19.484;2023-07-20T14:29:58;4.68;;;1.50;;
19951;SDS011;10137;49.406;19.484;2023-07-20T14:32:25;1.70;;;1.50;;
19951;SDS011;10137;49.406;19.484;2023-07-20T14:34:54;4.50;;;1.52;;
19951;SDS011;10137;49.406;19.484;2023-07-20T14:37:21;2.83;;;1.25;;
19951;SDS011;10137;49.406;19.484;2023-07-20T14:39:48;1.63;;;1.30;;
19951;SDS011;10137;49.406;19.484;2023-07-20T14:42:15;1.98;;;1.25;;
19951;SDS011;10137;49.406;19.484;2023-07-20T14:44:43;2.78;;;1.40;;
19951;SDS011;10137;49.406;19.484;2023-07-20T14:47:10;2.00;;;1.38;;
19951;SDS011;10137;49.406;19.484;2023-07-20T14:49:38;2.90;;;1.30;;
19951;SDS011;10137;49.406;19.484;2023-07-20T14:52:06;4.05;;;1.38;;
19951;SDS011;10137;49.406;19.484;2023-07-20T14:54:34;4.90;;;1.23;;
19951;SDS011;10137;49.406;19.484;2023-07-20T14:57:01;2.97;;;1.63;;